Time;durP1;ratioP1;P1;durP2;ratioP2;P2;SDS_P1;SDS_P2;PMS_P1;PMS_P2;Temp;Humidity;BMP_temperature;BMP_pressure;BME280_temperature;BME280_humidity;BME280_pressure;Samples;Min_cycle;Max_cycle;Signal;HPM_P1;HPM_P2
2023/03/19 00:02:20;;;;;;;7.03;4.93;;;13.10;73.80;;;;;;6214300;23;20000;-80
2023/03/19 00:04:46;;;;;;;8.50;5.28;;;13.10;74.10;;;;;;6212545;23;20139;-80
2023/03/19 00:07:13;;;;;;;7.82;5.95;;;13.10;74.30;;;;;;6214676;23;20005;-81
2023/03/19 00:09:39;;;;;;;6.55;5.00;;;13.10;74.40;;;;;;6214645;23;20427;-80
2023/03/19 00:12:05;;;;;;;8.88;5.45;;;13.10;74.40;;;;;;6215345;23;20004;-80
2023/03/19 00:14:31;;;;;;;7.72;5.32;;;13.10;74.40;;;;;;6215584;23;20000;-80
2023/03/19 00:16:57;;;;;;;7.45;5.63;;;13.10;74.40;;;;;;6215804;23;20007;-80
2023/03/19 00:19:22;;;;;;;8.68;5.93;;;13.10;74.30;;;;;;6215528;23;20036;-80
2023/03/19 00:21:48;;;;;;;8.38;6.03;;;13.10;74.10;;;;;;6215763;23;20436;-80
2023/03/19 00:24:16;;;;;;;7.97;5.50;;;13.10;74.50;;;;;;6215819;23;20411;-80
2023/03/19 00:26:42;;;;;;;10.02;6.03;;;13.10;74.10;;;;;;6215893;23;20005;-80
2023/03/19 00:29:08;;;;;;;7.78;5.70;;;13.10;74.10;;;;;;6215144;23;20327;-81
2023/03/19 00:31:34;;;;;;;11.02;6.38;;;13.10;74.10;;;;;;6215612;23;20133;-80
2023/03/19 00:34:01;;;;;;;7.75;5.97;;;13.00;74.30;;;;;;6215783;23;20030;-80
2023/03/19 00:36:27;;;;;;;8.07;6.43;;;13.00;74.30;;;;;;6215259;23;20011;-81
2023/03/19 00:38:53;;;;;;;9.20;6.43;;;13.00;74.40;;;;;;6215971;23;20066;-80
2023/03/19 00:41:19;;;;;;;10.68;5.95;;;13.00;74.60;;;;;;6215725;23;20036;-80
2023/03/19 00:43:45;;;;;;;9.10;6.70;;;12.90;74.70;;;;;;6214854;23;20434;-80
2023/03/19 00:46:11;;;;;;;10.27;6.85;;;12.90;74.70;;;;;;6215980;23;20031;-80
2023/03/19 00:48:37;;;;;;;9.48;6.90;;;12.90;74.80;;;;;;6214971;23;20320;-80
2023/03/19 00:51:08;;;;;;;8.35;6.90;;;12.90;74.90;;;;;;6215602;23;20080;-80
2023/03/19 00:53:42;;;;;;;8.23;6.72;;;12.80;74.90;;;;;;6215672;23;20435;-80
2023/03/19 00:56:10;;;;;;;11.55;6.78;;;12.80;75.00;;;;;;6215201;23;20039;-80
2023/03/19 00:58:37;;;;;;;10.20;6.88;;;12.80;74.40;;;;;;6214995;23;20008;-80
2023/03/19 01:01:04;;;;;;;9.40;6.40;;;12.70;74.70;;;;;;6189114;23;20012;-80
2023/03/19 01:03:29;;;;;;;8.65;7.03;;;12.70;74.90;;;;;;6216386;23;20327;-80
2023/03/19 01:05:57;;;;;;;9.45;6.47;;;12.60;75.10;;;;;;6215541;23;19997;-80
2023/03/19 01:08:22;;;;;;;9.65;6.60;;;12.60;75.10;;;;;;6216208;23;20027;-80
2023/03/19 01:10:48;;;;;;;12.02;7.22;;;12.60;75.30;;;;;;6215420;23;20012;-79
2023/03/19 01:13:14;;;;;;;11.48;8.15;;;12.50;75.00;;;;;;6215627;23;20051;-79
2023/03/19 01:15:42;;;;;;;9.43;7.45;;;12.50;75.10;;;;;;6215433;23;20438;-79
2023/03/19 01:18:08;;;;;;;11.35;8.05;;;12.50;75.60;;;;;;6215858;23;20379;-80
2023/03/19 01:20:36;;;;;;;10.05;7.90;;;12.50;75.40;;;;;;6215552;23;20028;-80
2023/03/19 01:23:03;;;;;;;8.90;6.63;;;12.40;75.30;;;;;;6213149;23;20001;-80
2023/03/19 01:25:29;;;;;;;13.05;7.20;;;12.50;75.90;;;;;;6215274;23;20354;-80
2023/03/19 01:27:55;;;;;;;11.95;8.00;;;12.50;75.20;;;;;;6215576;23;20066;-80
2023/03/19 01:30:20;;;;;;;10.23;7.80;;;12.50;75.60;;;;;;6214959;23;20420;-80
2023/03/19 01:32:46;;;;;;;9.95;7.55;;;12.50;75.60;;;;;;6214030;23;19996;-82
2023/03/19 01:35:12;;;;;;;9.43;7.00;;;12.40;75.60;;;;;;6215075;23;20316;-82
2023/03/19 01:37:38;;;;;;;10.43;7.18;;;12.50;75.90;;;;;;6215116;23;20071;-84
2023/03/19 01:40:05;;;;;;;10.45;7.82;;;12.40;76.00;;;;;;6215111;23;20031;-82
2023/03/19 01:42:32;;;;;;;9.73;6.82;;;12.40;76.10;;;;;;6189258;23;20011;-76
2023/03/19 01:44:59;;;;;;;8.48;6.75;;;12.40;75.80;;;;;;6214422;23;20003;-75
2023/03/19 01:47:37;;;;;;;10.80;6.90;;;12.40;75.90;;;;;;6213659;23;20039;-82
2023/03/19 01:50:04;;;;;;;11.00;7.18;;;12.50;76.40;;;;;;6188171;23;20316;-76
2023/03/19 01:52:33;;;;;;;9.25;6.65;;;12.50;76.40;;;;;;6214516;23;20011;-75
2023/03/19 01:55:01;;;;;;;8.15;6.15;;;12.50;76.50;;;;;;6215319;23;20041;-75
2023/03/19 01:57:29;;;;;;;9.48;6.40;;;12.50;76.30;;;;;;6215176;23;20367;-75
2023/03/19 02:00:00;;;;;;;8.75;6.95;;;12.50;76.60;;;;;;6214120;23;20012;-75
2023/03/19 02:02:31;;;;;;;8.43;6.53;;;12.50;76.40;;;;;;6214035;23;20111;-75
2023/03/19 02:05:05;;;;;;;8.50;6.43;;;12.50;76.50;;;;;;6215273;23;20000;-75
2023/03/19 02:07:33;;;;;;;9.82;6.88;;;12.40;76.30;;;;;;6214874;23;20715;-76
2023/03/19 02:10:00;;;;;;;8.15;6.72;;;12.40;76.70;;;;;;6214381;23;20432;-76
2023/03/19 02:12:26;;;;;;;9.20;6.93;;;;;;;;;;6215114;23;20001;-76
2023/03/19 02:14:52;;;;;;;9.40;6.32;;;12.40;76.70;;;;;;6188583;23;20069;-75
2023/03/19 02:17:20;;;;;;;10.32;6.10;;;12.40;77.30;;;;;;6215022;23;20004;-75
2023/03/19 02:20:07;;;;;;;12.70;6.43;;;12.40;77.30;;;;;;6214548;23;20004;-76
2023/03/19 02:22:36;;;;;;;9.43;6.53;;;12.50;77.50;;;;;;6214886;23;20080;-75
2023/03/19 02:25:13;;;;;;;9.07;6.32;;;12.50;77.60;;;;;;6214304;23;20001;-76
2023/03/19 02:27:38;;;;;;;11.13;6.80;;;12.50;77.70;;;;;;6214571;23;19996;-76
2023/03/19 02:30:26;;;;;;;8.18;6.43;;;12.50;77.70;;;;;;6214410;23;20024;-76
2023/03/19 02:32:51;;;;;;;9.63;6.85;;;12.40;77.60;;;;;;6213707;23;20080;-75
2023/03/19 02:35:17;;;;;;;9.85;6.63;;;12.40;77.50;;;;;;6215313;23;20074;-75
2023/03/19 02:37:43;;;;;;;9.60;6.85;;;12.40;77.60;;;;;;6216283;23;20081;-75
2023/03/19 02:40:20;;;;;;;7.45;6.25;;;12.40;77.60;;;;;;6188730;23;20059;-75
2023/03/19 02:42:45;;;;;;;9.25;7.07;;;12.30;77.70;;;;;;6189689;23;20001;-76
2023/03/19 02:45:12;;;;;;;10.32;7.05;;;12.30;77.90;;;;;;6215908;23;20054;-75
2023/03/19 02:47:37;;;;;;;10.07;7.03;;;12.30;78.10;;;;;;6216177;23;20001;-76
2023/03/19 02:50:03;;;;;;;8.88;6.80;;;12.30;78.10;;;;;;6215513;23;20344;-75
2023/03/19 02:52:29;;;;;;;7.85;6.65;;;12.30;78.10;;;;;;6216540;23;20012;-76
2023/03/19 02:54:55;;;;;;;10.35;6.57;;;12.30;78.30;;;;;;6215792;23;20051;-76
2023/03/19 02:57:20;;;;;;;11.70;6.88;;;12.30;78.60;;;;;;6216402;23;20001;-76
2023/03/19 02:59:46;;;;;;;8.52;7.00;;;12.30;78.50;;;;;;6215944;23;20004;-76
2023/03/19 03:02:12;;;;;;;8.75;6.78;;;12.20;78.20;;;;;;6216073;23;19997;-76
2023/03/19 03:04:37;;;;;;;10.18;6.57;;;12.20;78.80;;;;;;6189536;23;20005;-75
2023/03/19 03:07:05;;;;;;;8.25;6.18;;;12.20;79.00;;;;;;6216479;23;20001;-75
2023/03/19 03:09:30;;;;;;;9.88;6.80;;;12.20;79.20;;;;;;6215935;23;20058;-75
2023/03/19 03:11:56;;;;;;;9.25;6.97;;;12.20;79.10;;;;;;6216221;23;20000;-75
2023/03/19 03:14:22;;;;;;;9.30;6.68;;;12.20;79.50;;;;;;6216134;23;20001;-75
2023/03/19 03:16:47;;;;;;;8.23;6.97;;;12.20;79.60;;;;;;6216904;23;20000;-75
2023/03/19 03:19:13;;;;;;;10.45;7.50;;;12.20;79.20;;;;;;6214894;23;20001;-75
2023/03/19 03:21:40;;;;;;;9.18;6.90;;;12.20;79.70;;;;;;6216737;23;20024;-75
2023/03/19 03:24:06;;;;;;;13.77;6.85;;;12.20;79.40;;;;;;6216167;23;20327;-75
2023/03/19 03:26:33;;;;;;;7.82;6.13;;;12.20;79.70;;;;;;6189182;23;20024;-75
2023/03/19 03:28:59;;;;;;;7.35;5.72;;;12.20;79.80;;;;;;6215048;23;20021;-75
2023/03/19 03:31:25;;;;;;;6.68;5.57;;;12.20;80.00;;;;;;6216528;23;20387;-75
2023/03/19 03:33:51;;;;;;;7.80;6.10;;;12.20;80.30;;;;;;6190091;23;20005;-75
2023/03/19 03:36:17;;;;;;;6.70;5.72;;;12.20;80.40;;;;;;6215885;23;20008;-75
2023/03/19 03:38:44;;;;;;;8.55;5.95;;;12.20;80.50;;;;;;6188611;23;20012;-76
2023/03/19 03:41:09;;;;;;;8.68;6.72;;;12.20;80.70;;;;;;6216312;23;20005;-76
2023/03/19 03:43:35;;;;;;;8.25;6.80;;;12.20;80.70;;;;;;6215929;23;19997;-76
2023/03/19 03:46:01;;;;;;;9.35;7.90;;;12.20;80.40;;;;;;6214853;23;20031;-76
2023/03/19 03:48:27;;;;;;;10.60;8.00;;;12.20;80.10;;;;;;6215792;23;20074;-76
2023/03/19 03:50:53;;;;;;;9.73;7.10;;;12.20;79.90;;;;;;6215316;23;20316;-76
2023/03/19 03:53:18;;;;;;;9.02;6.82;;;12.20;79.80;;;;;;6215872;23;20080;-76
2023/03/19 03:55:44;;;;;;;9.35;6.28;;;12.20;80.10;;;;;;6215936;23;20411;-76
2023/03/19 03:58:11;;;;;;;10.55;6.05;;;12.20;80.40;;;;;;6215685;23;20001;-76
2023/03/19 04:00:37;;;;;;;8.40;6.18;;;12.20;80.40;;;;;;6214791;23;20000;-76
2023/03/19 04:03:03;;;;;;;9.93;7.13;;;12.20;80.30;;;;;;6216158;23;20007;-75
2023/03/19 04:05:29;;;;;;;8.55;6.45;;;12.20;80.30;;;;;;6215861;23;20000;-76
2023/03/19 04:07:55;;;;;;;10.00;6.80;;;12.30;80.30;;;;;;6215517;23;20004;-76
2023/03/19 04:10:22;;;;;;;8.80;6.85;;;12.30;80.10;;;;;;6215408;23;20076;-76
2023/03/19 04:12:48;;;;;;;10.23;7.13;;;12.30;80.20;;;;;;6216147;23;20023;-75
2023/03/19 04:15:15;;;;;;;8.40;6.72;;;12.20;80.30;;;;;;6215964;23;20071;-75
2023/03/19 04:17:41;;;;;;;8.45;7.07;;;12.20;79.90;;;;;;6215471;23;20000;-76
2023/03/19 04:20:10;;;;;;;8.45;6.30;;;12.30;80.30;;;;;;6215653;23;20012;-75
2023/03/19 04:22:35;;;;;;;7.20;5.15;;;12.30;80.40;;;;;;6188780;23;20004;-76
2023/03/19 04:25:01;;;;;;;9.57;5.57;;;12.30;80.60;;;;;;6215380;23;20075;-76
2023/03/19 04:27:27;;;;;;;6.15;5.15;;;12.30;81.10;;;;;;6216175;23;20000;-75
2023/03/19 04:29:52;;;;;;;6.30;5.47;;;12.30;80.90;;;;;;6216083;23;20063;-76
2023/03/19 04:32:18;;;;;;;5.60;4.82;;;12.30;81.50;;;;;;6216001;23;20008;-76
2023/03/19 04:34:44;;;;;;;5.72;4.95;;;12.30;81.50;;;;;;6214348;23;20000;-75
2023/03/19 04:37:10;;;;;;;5.45;4.85;;;12.30;81.70;;;;;;6215433;23;20008;-75
2023/03/19 04:39:36;;;;;;;5.90;4.65;;;12.30;81.80;;;;;;6214522;23;20023;-75
2023/03/19 04:42:03;;;;;;;6.25;4.90;;;12.30;81.80;;;;;;6214948;23;19997;-75
2023/03/19 04:44:29;;;;;;;6.30;5.18;;;12.30;81.70;;;;;;6214199;23;20004;-75
2023/03/19 04:46:55;;;;;;;7.22;5.78;;;12.40;81.70;;;;;;6215085;23;20004;-75
2023/03/19 04:49:21;;;;;;;9.25;6.07;;;12.30;81.50;;;;;;6215040;23;20331;-75
2023/03/19 04:51:47;;;;;;;6.55;5.85;;;12.30;81.20;;;;;;6215042;23;20391;-75
2023/03/19 04:54:12;;;;;;;7.85;6.43;;;12.30;80.70;;;;;;6213707;23;20792;-75
2023/03/19 04:56:38;;;;;;;8.68;6.72;;;12.30;80.90;;;;;;6215252;23;20010;-75
2023/03/19 04:59:04;;;;;;;10.80;8.13;;;12.30;79.90;;;;;;6214242;23;20004;-75
2023/03/19 05:01:30;;;;;;;10.65;7.57;;;12.30;79.50;;;;;;6214423;23;20080;-75
2023/03/19 05:03:55;;;;;;;8.65;7.40;;;12.20;79.80;;;;;;6214742;23;20453;-75
2023/03/19 05:06:21;;;;;;;8.93;7.55;;;12.20;79.00;;;;;;6214715;23;20028;-75
2023/03/19 05:08:47;;;;;;;9.60;8.52;;;12.20;79.10;;;;;;6214999;23;20082;-75
2023/03/19 05:11:13;;;;;;;13.02;9.68;;;12.10;78.80;;;;;;6214747;23;20008;-75
2023/03/19 05:13:39;;;;;;;14.18;11.02;;;12.10;78.70;;;;;;6215111;23;20005;-75
2023/03/19 05:16:05;;;;;;;12.38;10.10;;;12.00;78.40;;;;;;6213637;23;20036;-75
2023/03/19 05:18:32;;;;;;;12.70;10.50;;;12.00;77.90;;;;;;6214199;23;20327;-77
2023/03/19 05:20:58;;;;;;;12.30;10.25;;;11.90;77.40;;;;;;6213972;23;20004;-76
2023/03/19 05:23:23;;;;;;;14.30;10.68;;;11.70;77.00;;;;;;6215259;23;20000;-76
2023/03/19 05:25:49;;;;;;;13.48;10.82;;;11.70;77.60;;;;;;6214497;23;19997;-76
2023/03/19 05:28:15;;;;;;;12.85;10.70;;;11.70;77.60;;;;;;6215332;23;20007;-76
2023/03/19 05:30:42;;;;;;;13.57;10.95;;;11.70;77.60;;;;;;6214337;23;20011;-75
2023/03/19 05:33:08;;;;;;;13.75;11.48;;;11.70;78.20;;;;;;6215231;23;20027;-76
2023/03/19 05:35:35;;;;;;;14.27;11.80;;;11.70;77.50;;;;;;6213994;23;20005;-76
2023/03/19 05:38:01;;;;;;;16.00;12.25;;;11.70;77.30;;;;;;6214367;23;20001;-75
2023/03/19 05:40:27;;;;;;;17.88;12.50;;;11.70;76.90;;;;;;6214167;23;20031;-75
2023/03/19 05:42:52;;;;;;;15.70;11.70;;;11.70;76.90;;;;;;6214508;23;20311;-75
2023/03/19 05:45:18;;;;;;;15.30;11.98;;;11.60;76.70;;;;;;6214743;23;19997;-75
2023/03/19 05:47:47;;;;;;;13.75;11.27;;;11.60;76.80;;;;;;6214549;23;20288;-75
2023/03/19 05:50:13;;;;;;;13.73;11.57;;;11.60;76.90;;;;;;6214658;23;20051;-75
2023/03/19 05:52:38;;;;;;;13.80;11.75;;;11.60;77.20;;;;;;6214530;23;20363;-75
2023/03/19 05:55:05;;;;;;;15.73;12.73;;;11.60;77.10;;;;;;6214433;23;20059;-75
2023/03/19 05:57:31;;;;;;;16.35;12.05;;;11.60;76.60;;;;;;6213968;23;20028;-75
2023/03/19 05:59:57;;;;;;;18.17;14.43;;;11.60;77.00;;;;;;6214756;23;20007;-75
2023/03/19 06:02:23;;;;;;;13.10;11.38;;;11.60;76.70;;;;;;6214426;23;20004;-75
2023/03/19 06:04:49;;;;;;;15.40;11.50;;;11.40;76.50;;;;;;6214591;23;20043;-75
2023/03/19 06:07:14;;;;;;;15.15;12.93;;;11.40;77.00;;;;;;6214921;23;20001;-75
2023/03/19 06:09:40;;;;;;;14.98;12.77;;;11.50;77.10;;;;;;6215081;23;20348;-75
2023/03/19 06:12:07;;;;;;;16.20;12.38;;;11.50;76.60;;;;;;6215052;23;20068;-75
2023/03/19 06:14:33;;;;;;;19.23;11.68;;;11.50;77.10;;;;;;6214882;23;20047;-75
2023/03/19 06:16:58;;;;;;;16.45;11.73;;;11.60;76.60;;;;;;6214208;23;20000;-76
2023/03/19 06:24:59;;;;;;;17.08;11.50;;;11.60;77.00;;;;;;6246644;22;20024;-81
2023/03/19 06:27:27;;;;;;;16.25;11.55;;;11.70;77.30;;;;;;6246074;23;20091;-75
2023/03/19 06:29:59;;;;;;;14.77;11.32;;;11.70;77.20;;;;;;6244508;22;20008;-78
2023/03/19 06:32:26;;;;;;;13.88;10.98;;;11.80;77.20;;;;;;6244176;23;20345;-78
2023/03/19 06:34:52;;;;;;;15.18;11.10;;;11.90;77.00;;;;;;6245104;23;20024;-82
2023/03/19 06:37:17;;;;;;;17.13;13.00;;;11.90;75.70;;;;;;6245558;23;20001;-84
2023/03/19 06:39:43;;;;;;;20.13;13.10;;;11.80;76.10;;;;;;6244665;23;20035;-76
2023/03/19 06:42:12;;;;;;;19.02;13.80;;;11.70;76.40;;;;;;6243668;23;20449;-76
2023/03/19 06:44:38;;;;;;;14.60;11.80;;;11.50;76.50;;;;;;6244864;23;19996;-85
2023/03/19 06:47:04;;;;;;;16.27;12.30;;;11.40;77.10;;;;;;6245085;23;20000;-76
2023/03/19 06:49:31;;;;;;;17.80;12.50;;;11.40;77.00;;;;;;6240811;23;20030;-78
2023/03/19 06:51:56;;;;;;;18.85;13.27;;;11.50;77.20;;;;;;6241458;23;20035;-77
2023/03/19 06:54:22;;;;;;;14.95;11.38;;;11.60;76.80;;;;;;6242212;23;20310;-77
2023/03/19 06:56:48;;;;;;;17.00;11.10;;;11.70;76.10;;;;;;6240604;23;20381;-77
2023/03/19 06:59:14;;;;;;;13.52;11.32;;;11.70;76.60;;;;;;6239906;23;20095;-78
2023/03/19 07:01:40;;;;;;;15.15;12.15;;;11.80;75.80;;;;;;6242989;23;20387;-77
2023/03/19 07:04:07;;;;;;;15.77;11.77;;;11.80;76.30;;;;;;6241191;23;20008;-77
2023/03/19 07:06:33;;;;;;;17.63;11.80;;;11.80;76.10;;;;;;6244131;22;20004;-78
2023/03/19 07:08:59;;;;;;;18.00;12.23;;;11.80;76.30;;;;;;6244143;23;20010;-77
2023/03/19 07:11:25;;;;;;;19.08;11.73;;;11.90;76.30;;;;;;6241138;23;20036;-78
2023/03/19 07:13:51;;;;;;;20.33;11.35;;;12.00;76.20;;;;;;6243683;23;20067;-79
2023/03/19 07:16:17;;;;;;;13.77;11.30;;;12.10;76.20;;;;;;6242609;23;20008;-80
2023/03/19 07:18:43;;;;;;;15.68;11.15;;;12.20;76.30;;;;;;6242778;23;20088;-83
2023/03/19 07:21:08;;;;;;;13.45;10.77;;;12.30;76.10;;;;;;6241104;23;20794;-81
2023/03/19 07:23:34;;;;;;;13.70;10.95;;;12.50;75.40;;;;;;6239113;23;20004;-80
2023/03/19 07:26:00;;;;;;;13.73;10.70;;;12.50;75.40;;;;;;6214232;23;20036;-83
2023/03/19 07:28:26;;;;;;;14.07;10.07;;;12.60;75.90;;;;;;6214972;23;20061;-83
2023/03/19 07:30:52;;;;;;;14.40;10.93;;;12.60;75.80;;;;;;6214829;23;20323;-79
2023/03/19 07:33:19;;;;;;;14.57;11.23;;;12.70;75.90;;;;;;6216572;23;20306;-80
2023/03/19 07:35:45;;;;;;;13.85;10.63;;;12.80;75.70;;;;;;6216374;23;20378;-79
2023/03/19 07:38:11;;;;;;;14.05;10.65;;;12.90;75.70;;;;;;6216154;23;20001;-79
2023/03/19 07:40:37;;;;;;;15.75;9.55;;;12.90;75.60;;;;;;6215780;23;20008;-80
2023/03/19 07:43:03;;;;;;;12.07;9.82;;;13.00;75.70;;;;;;6216015;23;20001;-79
2023/03/19 07:45:28;;;;;;;13.73;10.65;;;13.00;75.70;;;;;;6216454;23;20036;-80
2023/03/19 07:47:54;;;;;;;14.75;9.98;;;13.10;75.70;;;;;;6216544;23;20495;-79
2023/03/19 07:50:20;;;;;;;12.65;9.80;;;13.10;75.60;;;;;;6216430;23;20015;-79
2023/03/19 07:52:47;;;;;;;13.80;10.20;;;13.20;75.70;;;;;;6216656;23;20079;-79
2023/03/19 07:55:13;;;;;;;13.68;9.88;;;13.30;75.70;;;;;;6214081;23;20013;-80
2023/03/19 07:57:39;;;;;;;13.15;9.55;;;13.30;75.70;;;;;;6215704;23;20079;-80
2023/03/19 08:00:06;;;;;;;13.15;10.77;;;13.40;75.90;;;;;;6214531;23;20032;-79
2023/03/19 08:02:32;;;;;;;13.82;9.73;;;13.40;75.80;;;;;;6215714;23;20061;-79
2023/03/19 08:05:00;;;;;;;11.20;8.90;;;13.50;75.50;;;;;;6216215;23;20039;-80
2023/03/19 08:07:27;;;;;;;11.73;9.65;;;13.60;75.40;;;;;;6216343;23;20430;-80
2023/03/19 08:09:52;;;;;;;13.18;10.10;;;13.60;75.30;;;;;;6216062;23;20004;-81
2023/03/19 08:12:18;;;;;;;14.27;11.50;;;13.50;75.40;;;;;;6216001;23;20059;-81
2023/03/19 08:14:44;;;;;;;14.00;11.32;;;13.20;76.30;;;;;;6214751;23;20326;-83
2023/03/19 08:17:10;;;;;;;12.73;9.65;;;12.80;78.10;;;;;;6216372;23;20009;-84
2023/03/19 08:19:36;;;;;;;12.88;10.20;;;12.90;78.60;;;;;;6216338;23;20005;-84
2023/03/19 08:22:01;;;;;;;11.73;9.48;;;12.70;79.20;;;;;;6214527;23;20314;-83
2023/03/19 08:24:27;;;;;;;11.80;8.75;;;12.70;79.50;;;;;;6213967;23;20028;-82
2023/03/19 08:26:53;;;;;;;10.77;8.07;;;12.90;79.30;;;;;;6216027;23;20005;-83
2023/03/19 08:29:18;;;;;;;10.50;7.53;;;13.00;79.00;;;;;;6217135;23;20004;-83
2023/03/19 08:31:45;;;;;;;10.07;8.38;;;13.30;78.60;;;;;;6233199;23;20004;-84
2023/03/19 08:34:10;;;;;;;10.18;8.25;;;13.50;78.30;;;;;;6236423;23;20466;-83
2023/03/19 08:36:36;;;;;;;11.55;7.85;;;13.80;78.50;;;;;;6234987;23;20016;-83
2023/03/19 08:39:03;;;;;;;10.95;7.65;;;14.00;77.60;;;;;;6230487;23;20568;-83
2023/03/19 08:41:29;;;;;;;11.65;8.25;;;14.20;77.40;;;;;;6216484;23;20002;-83
2023/03/19 08:43:54;;;;;;;9.00;7.32;;;14.40;76.90;;;;;;6216326;23;20055;-85
2023/03/19 08:46:20;;;;;;;10.57;7.57;;;14.60;76.60;;;;;;6215812;23;20005;-83
2023/03/19 08:48:46;;;;;;;9.85;7.72;;;14.70;76.40;;;;;;6215760;23;20028;-83
2023/03/19 08:51:12;;;;;;;9.30;7.80;;;14.80;76.20;;;;;;6215867;23;20100;-84
2023/03/19 08:53:37;;;;;;;10.45;7.35;;;14.90;76.10;;;;;;6216208;23;20004;-84
2023/03/19 08:56:06;;;;;;;8.73;6.80;;;15.00;76.00;;;;;;6215812;23;20331;-83
2023/03/19 08:58:32;;;;;;;11.43;7.45;;;15.00;75.90;;;;;;6215305;23;20004;-81
2023/03/19 09:01:03;;;;;;;11.63;7.57;;;15.00;76.00;;;;;;6216252;23;19996;-81
2023/03/19 09:03:30;;;;;;;11.95;8.10;;;15.00;76.10;;;;;;6214739;23;20087;-80
2023/03/19 09:06:03;;;;;;;8.18;7.22;;;15.10;76.10;;;;;;6214329;23;20386;-79
2023/03/19 09:08:29;;;;;;;7.80;6.88;;;15.10;76.00;;;;;;6216804;23;20001;-79
2023/03/19 09:10:56;;;;;;;8.80;7.32;;;15.00;75.70;;;;;;6214492;23;20015;-82
2023/03/19 09:13:22;;;;;;;10.45;6.57;;;14.90;75.50;;;;;;6209480;23;20019;-77
2023/03/19 09:15:49;;;;;;;7.95;6.40;;;14.80;75.70;;;;;;6208558;23;20724;-77
2023/03/19 09:18:15;;;;;;;11.38;7.35;;;14.80;75.80;;;;;;6206910;23;20013;-76
2023/03/19 09:20:41;;;;;;;7.25;6.55;;;14.80;76.10;;;;;;6208406;23;20032;-77
2023/03/19 09:23:07;;;;;;;8.80;6.45;;;14.70;76.20;;;;;;6210299;23;20378;-77
2023/03/19 09:25:33;;;;;;;8.27;5.90;;;14.70;76.60;;;;;;6214324;23;20012;-81
2023/03/19 09:27:59;;;;;;;8.25;5.60;;;14.70;76.30;;;;;;6212764;23;20395;-82
2023/03/19 09:30:24;;;;;;;9.02;6.22;;;14.80;77.10;;;;;;6212470;23;20478;-82
2023/03/19 09:32:50;;;;;;;8.27;5.03;;;15.00;76.80;;;;;;6212680;23;20338;-79
2023/03/19 09:35:16;;;;;;;5.97;4.82;;;15.30;76.70;;;;;;6214149;23;20004;-79
2023/03/19 09:37:42;;;;;;;5.90;4.60;;;15.50;76.10;;;;;;6214645;23;20007;-79
2023/03/19 09:40:19;;;;;;;5.60;4.32;;;15.70;75.60;;;;;;6214158;23;20005;-79
2023/03/19 09:43:01;;;;;;;6.70;4.40;;;15.90;75.20;;;;;;6214514;23;20056;-84
2023/03/19 09:45:28;;;;;;;5.97;4.68;;;16.10;74.70;;;;;;6214989;23;20441;-80
2023/03/19 09:48:03;;;;;;;11.25;5.00;;;16.30;75.20;;;;;;6215284;23;20004;-79
2023/03/19 09:50:33;;;;;;;9.80;4.80;;;16.50;74.30;;;;;;6214613;23;20007;-79
2023/03/19 09:53:14;;;;;;;15.85;4.40;;;16.60;73.90;;;;;;6214558;23;20008;-79
2023/03/19 09:55:51;;;;;;;7.50;4.63;;;16.80;75.20;;;;;;6215306;23;20009;-80
2023/03/19 09:58:18;;;;;;;5.53;4.43;;;17.10;73.00;;;;;;6214264;23;20027;-80
2023/03/19 10:00:49;;;;;;;5.93;4.60;;;17.10;71.60;;;;;;6215356;23;20000;-84
2023/03/19 10:03:22;;;;;;;5.40;4.57;;;17.20;71.50;;;;;;6215805;23;19997;-84
2023/03/19 10:06:10;;;;;;;5.10;4.43;;;17.40;71.00;;;;;;6212461;23;20071;-85
2023/03/19 10:08:50;;;;;;;6.50;3.90;;;17.60;70.30;;;;;;6216080;23;20088;-85
2023/03/19 10:11:38;;;;;;;5.57;3.92;;;17.80;69.40;;;;;;6214146;23;20005;-86
2023/03/19 10:14:46;;;;;;;6.18;4.13;;;17.90;68.60;;;;;;6215390;23;20490;-80
2023/03/19 10:17:23;;;;;;;5.20;4.05;;;18.10;67.90;;;;;;6182594;23;20015;-80
2023/03/19 10:20:21;;;;;;;6.95;4.60;;;18.10;67.90;;;;;;6211997;23;20005;-80
2023/03/19 10:22:52;;;;;;;5.72;4.32;;;18.40;66.90;;;;;;6209529;23;20016;-80
2023/03/19 10:25:25;;;;;;;5.00;3.72;;;18.50;66.10;;;;;;6215471;23;20111;-80
2023/03/19 10:28:16;;;;;;;5.60;3.95;;;18.80;65.10;;;;;;6217975;23;20004;-79
2023/03/19 10:30:43;;;;;;;;;;;19.00;62.80;;;;;;6204277;23;20008;-79
2023/03/19 10:33:18;;;;;;;5.30;4.25;;;19.00;61.60;;;;;;6217087;23;19900;-79
2023/03/19 10:35:52;;;;;;;6.18;4.50;;;19.20;61.70;;;;;;6237529;23;20015;-78
2023/03/19 10:38:23;;;;;;;6.57;4.60;;;19.30;61.60;;;;;;6218036;23;20069;-79
2023/03/19 10:41:17;;;;;;;5.43;4.32;;;19.20;61.80;;;;;;6216567;23;20000;-80
2023/03/19 10:43:50;;;;;;;5.95;4.97;;;19.20;60.20;;;;;;6244293;23;20004;-79
2023/03/19 10:46:16;;;;;;;7.82;5.05;;;19.10;59.10;;;;;;6243714;23;19996;-78
2023/03/19 10:48:45;;;;;;;6.65;4.47;;;19.00;60.60;;;;;;6243988;23;20007;-79
2023/03/19 10:51:23;;;;;;;5.93;4.22;;;18.90;60.90;;;;;;6243973;23;20004;-78
2023/03/19 10:53:55;;;;;;;7.47;5.70;;;19.00;61.30;;;;;;6243652;23;20004;-78
2023/03/19 10:56:28;;;;;;;8.80;6.35;;;19.00;61.00;;;;;;6245229;23;20062;-79
2023/03/19 10:59:04;;;;;;;6.50;4.10;;;19.10;61.80;;;;;;6246001;23;20043;-79
2023/03/19 11:01:37;;;;;;;6.60;4.65;;;19.10;62.20;;;;;;6247132;23;20430;-79
2023/03/19 11:04:25;;;;;;;5.78;4.40;;;19.20;62.30;;;;;;6246290;23;20000;-77
2023/03/19 11:07:10;;;;;;;6.57;5.38;;;19.30;62.30;;;;;;6246976;23;19996;-78
2023/03/19 11:09:41;;;;;;;9.05;4.63;;;19.40;62.10;;;;;;6220075;23;20004;-78
2023/03/19 11:12:23;;;;;;;5.15;3.65;;;19.50;62.10;;;;;;6246961;23;20062;-79
2023/03/19 11:14:55;;;;;;;8.30;4.55;;;19.60;61.90;;;;;;6247261;23;20000;-78
2023/03/19 11:17:24;;;;;;;6.80;3.97;;;19.60;61.30;;;;;;6246499;23;20007;-78
2023/03/19 11:19:56;;;;;;;5.43;3.97;;;19.70;61.40;;;;;;6246310;23;20047;-78
2023/03/19 11:22:23;;;;;;;5.43;4.07;;;19.70;61.10;;;;;;6219786;23;20004;-78
2023/03/19 11:24:56;;;;;;;7.00;4.35;;;19.70;61.10;;;;;;6244747;23;20607;-79
2023/03/19 11:27:28;;;;;;;6.25;4.13;;;19.70;60.80;;;;;;6243630;23;20360;-78
2023/03/19 11:29:54;;;;;;;5.70;4.28;;;19.70;60.70;;;;;;6246395;23;20004;-79
2023/03/19 11:32:23;;;;;;;6.35;4.43;;;19.70;60.80;;;;;;6246662;23;20066;-78
2023/03/19 11:35:24;;;;;;;6.65;5.13;;;19.70;60.70;;;;;;6245901;23;20000;-78
2023/03/19 11:37:56;;;;;;;6.00;4.13;;;19.80;60.50;;;;;;6221035;23;20082;-79
2023/03/19 11:40:54;;;;;;;5.45;4.13;;;19.80;60.20;;;;;;6245255;23;20004;-78
2023/03/19 11:43:38;;;;;;;8.90;4.53;;;19.80;60.40;;;;;;6246361;23;19996;-79
2023/03/19 11:46:22;;;;;;;5.95;4.63;;;19.80;59.40;;;;;;6245631;23;20067;-79
2023/03/19 11:49:26;;;;;;;4.38;3.90;;;19.90;59.40;;;;;;6246062;23;20461;-79
2023/03/19 11:52:15;;;;;;;6.82;4.00;;;20.00;59.00;;;;;;6244742;23;20004;-78
2023/03/19 11:55:20;;;;;;;5.80;3.72;;;20.20;58.70;;;;;;6245756;23;20004;-79
2023/03/19 11:58:23;;;;;;;4.75;3.72;;;20.40;58.10;;;;;;6070335;23;20479;-78
2023/03/19 12:00:54;;;;;;;4.15;3.28;;;20.50;57.30;;;;;;6169285;23;20015;-80
2023/03/19 12:03:44;;;;;;;4.85;3.60;;;20.60;57.00;;;;;;6245611;23;20306;-84
2023/03/19 12:06:37;;;;;;;4.93;3.58;;;20.60;57.00;;;;;;6246138;23;20004;-84
2023/03/19 12:09:11;;;;;;;7.13;3.75;;;20.70;56.80;;;;;;6245302;23;20000;-83
2023/03/19 12:12:02;;;;;;;6.65;3.55;;;20.80;56.30;;;;;;6218193;23;20008;-83
2023/03/19 12:14:43;;;;;;;4.28;3.35;;;20.70;55.90;;;;;;6244916;23;20547;-79
2023/03/19 12:17:12;;;;;;;3.78;3.40;;;20.70;55.80;;;;;;6244762;23;20007;-82
2023/03/19 12:20:02;;;;;;;7.50;4.00;;;20.70;55.60;;;;;;6217241;23;20330;-82
2023/03/19 12:22:40;;;;;;;5.20;3.10;;;20.70;55.90;;;;;;6245544;23;20419;-82
2023/03/19 12:25:28;;;;;;;7.32;4.38;;;20.80;55.90;;;;;;6244931;23;20008;-79
2023/03/19 12:28:30;;;;;;;4.63;3.50;;;20.80;55.90;;;;;;6244439;23;19996;-78
2023/03/19 12:31:16;;;;;;;4.90;3.60;;;20.80;56.00;;;;;;6218274;23;20004;-78
2023/03/19 12:33:51;;;;;;;5.28;4.20;;;20.70;55.90;;;;;;6245125;23;20000;-79
2023/03/19 12:36:24;;;;;;;4.93;3.50;;;20.70;55.60;;;;;;6244767;23;20000;-78
2023/03/19 12:39:01;;;;;;;5.60;4.00;;;20.60;55.60;;;;;;6245443;23;20000;-78
2023/03/19 12:41:28;;;;;;;4.82;3.25;;;20.70;55.40;;;;;;6244941;23;20622;-79
2023/03/19 12:44:11;;;;;;;5.72;3.33;;;20.80;55.20;;;;;;6244175;23;20010;-80
2023/03/19 12:47:11;;;;;;;6.68;3.75;;;21.00;55.10;;;;;;6216853;23;20008;-79
2023/03/19 12:49:45;;;;;;;7.35;3.50;;;21.10;54.60;;;;;;6244918;23;20015;-79
2023/03/19 12:52:30;;;;;;;5.93;3.50;;;21.50;54.50;;;;;;6244770;23;20004;-79
2023/03/19 12:55:06;;;;;;;4.63;3.30;;;21.70;53.10;;;;;;6218174;23;20010;-83
2023/03/19 12:57:31;;;;;;;5.07;4.00;;;21.70;53.10;;;;;;6245122;23;20004;-85
2023/03/19 13:00:20;;;;;;;4.63;3.63;;;21.80;53.40;;;;;;6217936;23;20381;-86